Time;durP1;ratioP1;P1;durP2;ratioP2;P2;SDS_P1;SDS_P2;PMS_P1;PMS_P2;Temp;Humidity;BMP_temperature;BMP_pressure;BME280_temperature;BME280_humidity;BME280_pressure;Samples;Min_cycle;Max_cycle;Signal;HPM_P1;HPM_P2
2023/04/11 00:00:40;;;;;;;1.20;0.38;;;14.70;95.30;;;;;;5095196;28;20604;-59
2023/04/11 00:03:07;;;;;;;0.82;0.40;;;14.70;95.60;;;;;;5095632;28;20447;-58
2023/04/11 00:05:34;;;;;;;0.60;0.40;;;14.70;96.00;;;;;;5095367;28;20908;-59
2023/04/11 00:08:01;;;;;;;1.10;0.40;;;14.70;96.20;;;;;;5096066;28;20429;-60
2023/04/11 00:10:30;;;;;;;0.70;0.40;;;14.70;96.70;;;;;;5095948;28;20848;-58
2023/04/11 00:12:57;;;;;;;0.50;0.30;;;14.70;96.90;;;;;;5095495;28;20875;-60
2023/04/11 00:15:25;;;;;;;0.60;0.40;;;14.70;96.90;;;;;;5096445;28;20418;-60
2023/04/11 00:17:53;;;;;;;0.90;0.40;;;14.70;97.20;;;;;;5096519;28;20426;-60
2023/04/11 00:20:21;;;;;;;0.60;0.30;;;14.70;97.10;;;;;;5095934;28;20526;-61
2023/04/11 00:22:48;;;;;;;0.70;0.40;;;14.70;97.30;;;;;;5096273;28;20430;-61
2023/04/11 00:25:15;;;;;;;0.60;0.30;;;14.70;97.50;;;;;;5096298;28;20420;-60
2023/04/11 00:27:44;;;;;;;0.90;0.40;;;14.80;97.60;;;;;;5096307;28;20426;-61
2023/04/11 00:30:11;;;;;;;1.10;0.30;;;14.80;97.80;;;;;;5096702;28;20486;-62
2023/04/11 00:32:39;;;;;;;0.60;0.40;;;14.80;98.00;;;;;;5096727;28;20422;-60
2023/04/11 00:35:07;;;;;;;0.60;0.30;;;14.80;98.40;;;;;;5095623;28;20406;-61
2023/04/11 00:37:34;;;;;;;1.00;0.40;;;14.70;98.60;;;;;;5095422;28;20697;-60
2023/04/11 00:40:04;;;;;;;0.60;0.30;;;14.80;98.60;;;;;;5094117;28;20483;-59
2023/04/11 00:42:32;;;;;;;0.63;0.40;;;14.80;98.40;;;;;;5094596;28;20414;-61
2023/04/11 00:45:01;;;;;;;0.60;0.30;;;14.80;98.60;;;;;;5095657;28;20751;-60
2023/04/11 00:47:28;;;;;;;0.65;0.40;;;14.80;98.70;;;;;;5095080;28;20425;-61
2023/04/11 00:49:55;;;;;;;0.60;0.40;;;14.80;99.00;;;;;;5095361;28;20716;-60
2023/04/11 00:52:22;;;;;;;1.00;0.30;;;14.90;99.30;;;;;;5095471;28;20421;-62
2023/04/11 00:54:50;;;;;;;0.45;0.30;;;14.90;99.00;;;;;;5095320;28;20422;-59
2023/04/11 00:57:17;;;;;;;0.68;0.40;;;14.90;99.30;;;;;;5094531;28;20434;-59
2023/04/11 00:59:48;;;;;;;0.60;0.30;;;14.90;99.70;;;;;;5095245;28;20430;-60
2023/04/11 01:02:17;;;;;;;0.70;0.40;;;14.90;99.90;;;;;;5095176;28;20778;-60
2023/04/11 01:04:47;;;;;;;0.68;0.40;;;14.90;99.90;;;;;;5095796;28;20417;-61
2023/04/11 01:07:15;;;;;;;0.50;0.30;;;15.00;99.90;;;;;;5095162;28;20770;-61
2023/04/11 01:09:43;;;;;;;0.60;0.40;;;15.00;99.90;;;;;;5095309;28;20421;-61
2023/04/11 01:12:11;;;;;;;0.70;0.30;;;15.00;99.90;;;;;;5095539;28;20418;-61
2023/04/11 01:14:40;;;;;;;0.60;0.40;;;15.00;99.90;;;;;;5095650;28;20433;-60
2023/04/11 01:17:11;;;;;;;0.70;0.40;;;15.00;99.90;;;;;;5095360;28;20414;-61
2023/04/11 01:19:40;;;;;;;0.60;0.40;;;14.90;99.90;;;;;;5094233;28;20529;-61
2023/04/11 01:22:09;;;;;;;0.70;0.40;;;14.90;99.90;;;;;;5095189;28;20917;-61
2023/04/11 01:24:38;;;;;;;1.80;0.40;;;14.90;99.90;;;;;;5094570;28;20434;-59
2023/04/11 01:27:05;;;;;;;0.60;0.40;;;14.90;99.90;;;;;;5094427;28;20418;-59
2023/04/11 01:29:32;;;;;;;1.20;0.50;;;14.90;99.90;;;;;;5094022;28;20418;-60
2023/04/11 01:31:59;;;;;;;0.70;0.40;;;14.90;99.90;;;;;;5094677;28;20425;-57
2023/04/11 01:34:28;;;;;;;1.20;0.50;;;14.90;99.90;;;;;;5094655;28;20445;-59
2023/04/11 01:36:56;;;;;;;0.60;0.40;;;14.90;99.90;;;;;;5094381;28;20418;-59
2023/04/11 01:39:23;;;;;;;0.70;0.40;;;14.80;99.90;;;;;;5094106;28;20565;-60
2023/04/11 01:41:53;;;;;;;0.60;0.40;;;14.70;99.90;;;;;;5094461;28;20500;-59
2023/04/11 01:44:21;;;;;;;0.68;0.40;;;14.60;99.90;;;;;;5094459;28;20436;-58
2023/04/11 01:46:48;;;;;;;1.10;0.40;;;14.50;99.90;;;;;;5094947;28;20505;-59
2023/04/11 01:49:15;;;;;;;1.00;0.30;;;14.50;99.90;;;;;;5095766;28;20451;-59
2023/04/11 01:51:45;;;;;;;0.60;0.40;;;14.40;99.90;;;;;;5095481;28;20489;-58
2023/04/11 01:54:12;;;;;;;0.68;0.40;;;14.30;99.90;;;;;;5095303;28;20721;-59
2023/04/11 01:56:39;;;;;;;1.00;0.50;;;14.30;99.90;;;;;;5094944;28;20435;-59
2023/04/11 01:59:08;;;;;;;1.50;0.50;;;14.30;99.90;;;;;;5095093;28;20437;-60
2023/04/11 02:01:36;;;;;;;0.60;0.40;;;14.20;99.90;;;;;;5093859;28;20418;-57
2023/04/11 02:04:03;;;;;;;0.60;0.40;;;14.10;99.90;;;;;;5094358;28;20479;-59
2023/04/11 02:06:30;;;;;;;1.00;0.40;;;14.00;99.90;;;;;;5095155;28;20413;-57
2023/04/11 02:08:58;;;;;;;0.68;0.40;;;13.90;99.90;;;;;;5097892;28;20705;-57
2023/04/11 02:11:25;;;;;;;0.70;0.40;;;13.80;99.90;;;;;;5098823;28;20885;-60
2023/04/11 02:13:52;;;;;;;0.60;0.40;;;13.70;99.90;;;;;;5099087;28;20436;-57
2023/04/11 02:16:24;;;;;;;0.80;0.40;;;13.70;99.90;;;;;;5099198;28;20414;-58
2023/04/11 02:18:52;;;;;;;0.80;0.40;;;13.50;99.90;;;;;;5098794;28;20834;-58
2023/04/11 02:21:20;;;;;;;0.70;0.40;;;13.50;99.90;;;;;;5099031;28;20853;-58
2023/04/11 02:23:47;;;;;;;0.40;0.30;;;13.40;99.90;;;;;;5098477;28;20444;-57
2023/04/11 02:26:14;;;;;;;0.43;0.30;;;13.40;99.90;;;;;;5098064;28;20526;-54
2023/04/11 02:28:41;;;;;;;0.60;0.20;;;13.20;99.90;;;;;;5098678;28;20436;-53
2023/04/11 02:31:08;;;;;;;0.40;0.20;;;12.90;99.90;;;;;;5098153;28;20470;-55
2023/04/11 02:33:37;;;;;;;0.63;0.20;;;12.80;99.90;;;;;;5097596;28;20435;-56
2023/04/11 02:36:04;;;;;;;0.60;0.30;;;12.50;99.90;;;;;;5098300;28;20424;-57
2023/04/11 02:38:32;;;;;;;0.50;0.20;;;12.40;99.90;;;;;;5098034;28;20433;-55
2023/04/11 02:40:59;;;;;;;0.80;0.20;;;12.30;99.90;;;;;;5097991;28;20472;-54
2023/04/11 02:43:26;;;;;;;0.40;0.20;;;12.30;99.90;;;;;;5099056;28;20432;-53
2023/04/11 02:45:53;;;;;;;0.70;0.20;;;12.10;99.90;;;;;;5097770;28;20813;-55
2023/04/11 02:48:21;;;;;;;0.40;0.20;;;11.90;99.90;;;;;;5098344;28;20520;-56
2023/04/11 02:50:49;;;;;;;0.40;0.20;;;11.90;99.90;;;;;;5098468;28;20420;-58
2023/04/11 02:53:17;;;;;;;0.45;0.20;;;11.80;99.90;;;;;;5097990;28;20519;-57
2023/04/11 02:55:44;;;;;;;0.40;0.10;;;11.70;99.90;;;;;;5098403;28;20429;-57
2023/04/11 02:58:16;;;;;;;0.50;0.20;;;11.80;99.90;;;;;;5097693;28;20443;-56
2023/04/11 03:00:43;;;;;;;0.50;0.20;;;11.80;99.90;;;;;;5097666;28;20788;-56
2023/04/11 03:03:12;;;;;;;0.40;0.20;;;11.70;99.90;;;;;;5097947;28;20429;-56
2023/04/11 03:05:39;;;;;;;0.57;0.20;;;11.70;99.90;;;;;;5098047;28;20759;-56
2023/04/11 03:08:08;;;;;;;0.50;0.20;;;11.60;99.90;;;;;;5097511;28;20429;-55
2023/04/11 03:10:35;;;;;;;1.10;0.20;;;11.60;99.90;;;;;;5097047;28;20425;-56
2023/04/11 03:13:03;;;;;;;0.30;0.20;;;11.50;99.90;;;;;;5097493;28;20430;-54
2023/04/11 03:15:31;;;;;;;0.60;0.20;;;11.60;99.90;;;;;;5096777;28;20418;-55
2023/04/11 03:17:58;;;;;;;0.70;0.20;;;11.70;99.90;;;;;;5096841;28;20429;-55
2023/04/11 03:20:25;;;;;;;0.40;0.20;;;11.70;99.90;;;;;;5096582;28;20853;-57
2023/04/11 03:22:52;;;;;;;1.10;0.20;;;11.60;99.90;;;;;;5096302;28;20425;-55
2023/04/11 03:25:21;;;;;;;1.10;0.20;;;11.60;99.90;;;;;;5096618;28;20418;-55
2023/04/11 03:27:48;;;;;;;1.40;0.20;;;11.60;99.90;;;;;;5096711;28;20426;-52
2023/04/11 03:30:16;;;;;;;1.10;0.20;;;11.60;99.90;;;;;;5095863;28;20782;-55
2023/04/11 03:32:43;;;;;;;0.80;0.20;;;11.40;99.90;;;;;;5096111;28;20430;-55
2023/04/11 03:35:10;;;;;;;0.90;0.20;;;11.30;99.90;;;;;;5096682;28;20414;-56
2023/04/11 03:37:37;;;;;;;0.50;0.20;;;11.20;99.90;;;;;;5096960;28;20522;-56
2023/04/11 03:40:07;;;;;;;0.73;0.20;;;11.10;99.90;;;;;;5095756;28;20436;-59
2023/04/11 03:42:36;;;;;;;0.40;0.20;;;11.10;99.90;;;;;;5096450;28;20499;-57
2023/04/11 03:45:04;;;;;;;0.75;0.22;;;10.90;99.90;;;;;;5095526;28;20425;-57
2023/04/11 03:47:32;;;;;;;0.70;0.20;;;10.80;99.90;;;;;;5094567;28;20424;-60
2023/04/11 03:50:00;;;;;;;0.80;0.20;;;10.90;99.90;;;;;;5096817;28;20425;-56
2023/04/11 03:52:27;;;;;;;0.90;0.20;;;11.00;99.90;;;;;;5096397;28;20410;-57
2023/04/11 03:54:54;;;;;;;0.60;0.20;;;11.00;99.90;;;;;;5096829;28;20801;-55
2023/04/11 03:57:21;;;;;;;0.52;0.20;;;11.10;99.90;;;;;;5096658;28;20428;-54
2023/04/11 03:59:50;;;;;;;0.50;0.20;;;11.10;99.90;;;;;;5097042;28;20848;-60
2023/04/11 04:02:17;;;;;;;0.40;0.13;;;11.20;99.90;;;;;;5096957;28;20513;-59
2023/04/11 04:04:47;;;;;;;0.40;0.20;;;11.10;99.90;;;;;;5096829;28;20509;-59
2023/04/11 04:07:16;;;;;;;0.60;0.20;;;10.90;99.90;;;;;;5095487;28;20780;-59
2023/04/11 04:09:44;;;;;;;0.85;0.20;;;11.00;99.90;;;;;;5096649;28;20718;-59
2023/04/11 04:12:11;;;;;;;0.70;0.20;;;11.00;99.90;;;;;;5096011;28;20744;-59
2023/04/11 04:14:38;;;;;;;0.50;0.15;;;11.00;99.90;;;;;;5095027;28;20457;-60
2023/04/11 04:17:07;;;;;;;0.50;0.20;;;11.00;99.90;;;;;;5094844;28;20405;-61
2023/04/11 04:19:34;;;;;;;0.50;0.20;;;11.00;99.90;;;;;;5094247;28;20903;-60
2023/04/11 04:22:01;;;;;;;0.80;0.20;;;11.00;99.90;;;;;;5094511;28;20429;-60
2023/04/11 04:24:28;;;;;;;0.40;0.20;;;10.90;99.90;;;;;;5093886;28;20812;-60
2023/04/11 04:26:59;;;;;;;0.40;0.20;;;10.90;99.90;;;;;;5094596;28;20474;-59
2023/04/11 04:29:32;;;;;;;0.90;0.20;;;10.80;99.90;;;;;;5094357;28;20429;-59
2023/04/11 04:32:00;;;;;;;0.90;0.20;;;10.80;99.90;;;;;;5095406;28;20414;-60
2023/04/11 04:34:29;;;;;;;0.40;0.20;;;10.80;99.90;;;;;;5094352;28;20470;-60
2023/04/11 04:36:58;;;;;;;0.40;0.20;;;10.80;99.90;;;;;;5095237;28;20723;-60
2023/04/11 04:39:28;;;;;;;0.68;0.30;;;10.90;99.90;;;;;;5093856;28;20871;-59
2023/04/11 04:41:58;;;;;;;0.60;0.20;;;10.80;99.90;;;;;;5091818;28;20519;-60
2023/04/11 04:44:25;;;;;;;0.50;0.20;;;10.80;99.90;;;;;;5091578;28;20430;-59
2023/04/11 04:46:53;;;;;;;0.43;0.20;;;10.80;99.90;;;;;;5091341;28;20818;-59
2023/04/11 04:49:20;;;;;;;0.50;0.20;;;10.80;99.90;;;;;;5093339;28;20584;-61
2023/04/11 04:51:49;;;;;;;1.00;0.20;;;10.80;99.90;;;;;;5091558;28;20440;-61
2023/04/11 04:54:18;;;;;;;0.70;0.20;;;10.90;99.90;;;;;;5090288;28;20727;-59
2023/04/11 04:56:46;;;;;;;0.60;0.10;;;11.00;99.90;;;;;;5091538;28;20742;-60
2023/04/11 04:59:15;;;;;;;0.40;0.10;;;11.00;99.90;;;;;;5094223;28;20430;-59
2023/04/11 05:01:43;;;;;;;0.70;0.10;;;10.90;99.90;;;;;;5094766;28;20540;-58
2023/04/11 05:04:10;;;;;;;0.40;0.10;;;10.80;99.90;;;;;;5093311;28;20780;-58
2023/04/11 05:06:37;;;;;;;0.57;0.20;;;10.60;99.90;;;;;;5093182;28;20713;-57
2023/04/11 05:09:05;;;;;;;0.50;0.20;;;10.40;99.90;;;;;;5092687;28;20925;-53
2023/04/11 05:11:33;;;;;;;0.70;0.20;;;10.40;99.90;;;;;;5094731;28;20414;-58
2023/04/11 05:14:00;;;;;;;0.40;0.20;;;10.30;99.90;;;;;;5094982;28;20429;-58
2023/04/11 05:16:28;;;;;;;0.80;0.20;;;10.20;99.90;;;;;;5093713;28;20417;-56
2023/04/11 05:18:55;;;;;;;0.40;0.20;;;10.20;99.90;;;;;;5093405;28;20425;-61
2023/04/11 05:21:22;;;;;;;0.40;0.10;;;10.20;99.90;;;;;;5093246;28;20430;-59
2023/04/11 05:23:50;;;;;;;0.40;0.17;;;10.10;99.90;;;;;;5091516;28;20458;-59
2023/04/11 05:26:18;;;;;;;0.43;0.20;;;10.10;99.90;;;;;;5092419;28;20830;-59
2023/04/11 05:28:46;;;;;;;0.50;0.20;;;9.90;99.90;;;;;;5093210;28;20432;-59
2023/04/11 05:31:13;;;;;;;0.90;0.20;;;9.90;99.90;;;;;;5092200;28;20893;-60
2023/04/11 05:33:42;;;;;;;1.10;0.20;;;9.80;99.90;;;;;;5093737;28;20433;-60
2023/04/11 05:36:13;;;;;;;0.50;0.20;;;9.90;99.90;;;;;;5093663;28;20505;-59
2023/04/11 05:38:40;;;;;;;0.80;0.20;;;9.80;99.90;;;;;;5093631;28;20438;-60
2023/04/11 05:41:08;;;;;;;0.43;0.15;;;9.90;99.90;;;;;;5094026;28;20768;-60
2023/04/11 05:43:36;;;;;;;0.43;0.20;;;10.00;99.90;;;;;;5089956;28;20437;-60
2023/04/11 05:46:04;;;;;;;1.08;0.20;;;9.90;99.90;;;;;;5089340;28;20425;-59
2023/04/11 05:48:31;;;;;;;0.60;0.20;;;9.90;99.90;;;;;;5089633;28;20437;-60
2023/04/11 05:50:59;;;;;;;0.40;0.20;;;10.00;99.90;;;;;;5090667;28;20418;-59
2023/04/11 05:53:26;;;;;;;0.50;0.20;;;10.00;99.90;;;;;;5090462;28;20509;-60
2023/04/11 05:55:53;;;;;;;0.40;0.20;;;10.10;99.90;;;;;;5091316;28;20405;-60
2023/04/11 05:58:20;;;;;;;0.40;0.20;;;10.30;99.90;;;;;;5091225;28;20426;-59
2023/04/11 06:00:49;;;;;;;0.70;0.20;;;10.20;99.90;;;;;;5093403;28;20430;-60
2023/04/11 06:03:17;;;;;;;0.50;0.20;;;10.30;99.90;;;;;;5093322;28;20433;-60
2023/04/11 06:05:44;;;;;;;0.60;0.20;;;10.30;99.90;;;;;;5093397;28;20479;-60
2023/04/11 06:08:11;;;;;;;0.70;0.20;;;10.10;99.90;;;;;;5091312;28;20422;-60
2023/04/11 06:10:38;;;;;;;0.50;0.20;;;10.20;99.90;;;;;;5094549;28;20422;-60
2023/04/11 06:13:05;;;;;;;1.27;0.20;;;10.20;99.90;;;;;;5093745;28;20472;-60
2023/04/11 06:15:33;;;;;;;0.43;0.10;;;10.30;99.90;;;;;;5095498;28;20886;-60
2023/04/11 06:18:01;;;;;;;0.52;0.10;;;10.30;99.90;;;;;;5113165;28;20497;-59
2023/04/11 06:20:28;;;;;;;1.10;0.20;;;10.10;99.90;;;;;;5114053;28;20727;-60
2023/04/11 06:22:56;;;;;;;0.50;0.20;;;9.80;99.90;;;;;;5109886;28;20475;-59
2023/04/11 06:25:24;;;;;;;0.40;0.20;;;9.70;99.90;;;;;;5111216;28;20424;-60
2023/04/11 06:27:51;;;;;;;0.60;0.20;;;9.50;99.90;;;;;;5111673;28;20522;-59
2023/04/11 06:30:18;;;;;;;0.40;0.20;;;9.60;99.90;;;;;;5110983;28;20449;-59
2023/04/11 06:32:45;;;;;;;0.50;0.20;;;9.60;99.90;;;;;;5113245;28;20424;-59
2023/04/11 06:35:14;;;;;;;1.40;0.20;;;9.50;99.90;;;;;;5103263;28;20510;-58
2023/04/11 06:37:42;;;;;;;0.50;0.20;;;9.50;99.90;;;;;;5087920;28;20433;-58
2023/04/11 06:40:11;;;;;;;0.70;0.20;;;9.50;99.90;;;;;;5088671;28;21008;-58
2023/04/11 06:42:38;;;;;;;1.07;0.20;;;9.60;99.90;;;;;;5089743;28;20429;-59
2023/04/11 06:45:06;;;;;;;0.70;0.20;;;9.70;99.90;;;;;;5096924;28;20728;-59
2023/04/11 06:47:37;;;;;;;0.60;0.20;;;9.70;99.90;;;;;;5087020;28;20448;-59
2023/04/11 06:50:05;;;;;;;0.50;0.20;;;9.80;99.90;;;;;;5089655;28;20578;-51
2023/04/11 06:52:33;;;;;;;0.47;0.20;;;9.80;99.90;;;;;;5090082;28;20432;-52
2023/04/11 06:55:00;;;;;;;0.60;0.20;;;9.70;99.90;;;;;;5091157;28;20416;-50
2023/04/11 06:57:28;;;;;;;0.50;0.20;;;9.70;99.90;;;;;;5094184;28;20428;-51
2023/04/11 06:59:55;;;;;;;0.80;0.20;;;9.80;99.90;;;;;;5099955;28;20431;-52
2023/04/11 07:02:23;;;;;;;0.50;0.20;;;9.80;99.90;;;;;;5107967;28;20427;-57
2023/04/11 07:04:51;;;;;;;0.40;0.20;;;9.90;99.90;;;;;;5101301;28;20487;-60
2023/04/11 07:07:18;;;;;;;1.67;0.80;;;9.90;99.90;;;;;;5091636;28;20602;-60
2023/04/11 07:09:47;;;;;;;0.90;0.40;;;9.70;99.90;;;;;;5093625;28;20409;-60
2023/04/11 07:12:14;;;;;;;2.00;0.50;;;9.80;99.90;;;;;;5092039;28;20424;-61
2023/04/11 07:14:41;;;;;;;0.70;0.20;;;10.00;99.90;;;;;;5096924;28;20471;-65
2023/04/11 07:17:08;;;;;;;0.70;0.20;;;10.20;99.90;;;;;;5113845;28;20422;-63
2023/04/11 07:19:37;;;;;;;0.90;0.30;;;10.20;99.90;;;;;;5098020;28;20500;-64
2023/04/11 07:22:05;;;;;;;0.50;0.30;;;10.30;99.90;;;;;;5097093;28;20517;-62
2023/04/11 07:24:32;;;;;;;0.90;0.20;;;10.40;99.90;;;;;;5089923;28;20556;-63
2023/04/11 07:27:01;;;;;;;0.50;0.10;;;10.30;99.90;;;;;;5093622;28;20428;-63
2023/04/11 07:29:28;;;;;;;1.10;0.20;;;10.60;99.90;;;;;;5106083;28;20865;-65
2023/04/11 07:31:55;;;;;;;0.50;0.20;;;10.70;99.90;;;;;;5100644;28;20435;-64
2023/04/11 07:34:22;;;;;;;0.50;0.20;;;10.80;99.90;;;;;;5094501;28;20438;-63
2023/04/11 07:36:50;;;;;;;1.00;0.30;;;10.90;99.90;;;;;;5094581;28;20442;-63
2023/04/11 07:39:17;;;;;;;0.80;0.20;;;11.00;99.90;;;;;;5098270;28;20432;-64
2023/04/11 07:41:44;;;;;;;0.60;0.20;;;11.20;99.90;;;;;;5097082;28;20590;-63
2023/04/11 07:44:13;;;;;;;1.80;0.30;;;11.10;99.90;;;;;;5100213;28;20506;-64
2023/04/11 07:46:40;;;;;;;0.50;0.20;;;11.20;99.90;;;;;;5091732;28;20524;-64
2023/04/11 07:49:07;;;;;;;0.80;0.30;;;11.30;99.90;;;;;;5099174;28;20520;-64
2023/04/11 07:51:34;;;;;;;0.60;0.20;;;11.30;99.90;;;;;;5097477;28;20425;-63
2023/04/11 07:54:02;;;;;;;1.52;0.32;;;11.40;99.90;;;;;;5092155;28;20434;-64
2023/04/11 07:56:29;;;;;;;0.68;0.30;;;11.40;99.90;;;;;;5094473;28;20434;-64
2023/04/11 07:58:57;;;;;;;0.70;0.20;;;11.30;99.90;;;;;;5091832;28;20444;-61
2023/04/11 08:01:26;;;;;;;1.25;0.22;;;11.40;99.90;;;;;;5095095;28;20779;-61
2023/04/11 08:03:54;;;;;;;1.00;0.30;;;11.60;99.90;;;;;;5093701;28;20501;-59
2023/04/11 08:06:21;;;;;;;1.90;0.30;;;11.60;99.90;;;;;;5091916;28;20421;-59
2023/04/11 08:08:51;;;;;;;1.20;0.20;;;11.70;99.90;;;;;;5102308;28;20607;-59
2023/04/11 08:11:18;;;;;;;1.33;0.30;;;11.70;99.90;;;;;;5114794;28;20883;-57
2023/04/11 08:13:45;;;;;;;0.90;0.30;;;11.60;99.90;;;;;;5109269;28;20442;-57
2023/04/11 08:16:14;;;;;;;1.30;0.30;;;11.60;99.90;;;;;;5093314;28;20406;-57
2023/04/11 08:18:44;;;;;;;0.93;0.30;;;11.70;99.90;;;;;;5092367;28;20495;-57
2023/04/11 08:21:12;;;;;;;0.70;0.20;;;11.80;99.90;;;;;;5094647;28;20426;-57
2023/04/11 08:23:40;;;;;;;1.80;0.30;;;12.00;99.90;;;;;;5105344;28;20854;-61
2023/04/11 08:26:08;;;;;;;0.60;0.30;;;11.90;99.90;;;;;;5106323;28;20420;-60
2023/04/11 08:28:35;;;;;;;0.80;0.30;;;12.20;99.90;;;;;;5110236;28;20442;-60
2023/04/11 08:31:04;;;;;;;0.80;0.30;;;12.40;99.90;;;;;;5106810;28;20515;-48
2023/04/11 08:33:31;;;;;;;0.90;0.20;;;12.60;99.90;;;;;;5111975;28;20424;-49
2023/04/11 08:36:03;;;;;;;0.90;0.20;;;12.70;99.90;;;;;;5096271;28;20513;-54
2023/04/11 08:38:30;;;;;;;1.40;0.30;;;12.60;99.90;;;;;;5112428;28;20428;-52
2023/04/11 08:40:58;;;;;;;1.20;0.30;;;12.50;99.90;;;;;;5092352;28;20460;-52
2023/04/11 08:43:25;;;;;;;0.80;0.22;;;12.50;99.90;;;;;;5093476;28;20782;-54
2023/04/11 08:45:52;;;;;;;1.35;0.30;;;12.40;99.90;;;;;;5092654;28;20421;-51
2023/04/11 08:48:24;;;;;;;1.10;0.40;;;12.40;99.90;;;;;;5098226;28;20458;-50
2023/04/11 08:50:51;;;;;;;1.70;0.28;;;12.30;99.90;;;;;;5102831;28;20436;-51
2023/04/11 08:53:23;;;;;;;1.08;0.30;;;12.50;99.90;;;;;;5095554;28;20432;-52
2023/04/11 08:55:53;;;;;;;0.90;0.30;;;12.60;99.90;;;;;;5093642;28;20437;-52
2023/04/11 08:58:20;;;;;;;0.50;0.20;;;12.60;99.90;;;;;;5091237;28;20903;-52
2023/04/11 09:00:50;;;;;;;1.80;0.30;;;12.70;99.90;;;;;;5090450;28;20413;-51
2023/04/11 09:03:17;;;;;;;1.25;0.28;;;12.70;99.90;;;;;;5091595;28;20797;-50
2023/04/11 09:05:45;;;;;;;1.15;0.30;;;12.80;99.90;;;;;;5090371;28;20884;-52
2023/04/11 09:08:15;;;;;;;0.70;0.30;;;12.80;99.90;;;;;;5104161;28;20439;-50
2023/04/11 09:10:45;;;;;;;2.10;0.30;;;12.90;99.90;;;;;;5111648;28;20417;-48
2023/04/11 09:13:21;;;;;;;1.08;0.30;;;13.00;99.90;;;;;;5106751;28;20429;-50
2023/04/11 09:16:03;;;;;;;1.30;0.20;;;13.10;99.90;;;;;;5104429;28;20439;-49
2023/04/11 09:18:33;;;;;;;1.00;0.20;;;13.10;99.90;;;;;;5102726;28;20438;-56
2023/04/11 09:21:02;;;;;;;1.10;0.30;;;13.20;99.90;;;;;;5098156;28;20843;-50
2023/04/11 09:23:29;;;;;;;0.60;0.30;;;13.20;99.90;;;;;;5110113;28;20438;-57
2023/04/11 09:25:58;;;;;;;1.52;0.30;;;13.20;99.90;;;;;;5112068;28;20683;-58
2023/04/11 09:28:25;;;;;;;0.65;0.30;;;13.00;99.90;;;;;;5111186;28;20638;-58
2023/04/11 09:30:54;;;;;;;1.20;0.30;;;12.90;99.90;;;;;;5110430;28;20734;-56
2023/04/11 09:33:22;;;;;;;1.10;0.30;;;12.90;99.90;;;;;;5108705;28;20812;-59
2023/04/11 09:35:51;;;;;;;1.10;0.30;;;12.90;99.90;;;;;;5111098;28;20451;-59
2023/04/11 09:38:32;;;;;;;1.02;0.30;;;13.10;99.90;;;;;;5111167;28;20478;-59
2023/04/11 09:41:01;;;;;;;1.80;0.30;;;13.10;99.90;;;;;;5110135;28;20416;-60
2023/04/11 09:43:48;;;;;;;0.57;0.30;;;12.90;99.90;;;;;;5107435;28;20449;-60
2023/04/11 09:46:17;;;;;;;0.68;0.30;;;13.00;99.90;;;;;;5109438;28;20412;-60
2023/04/11 09:48:44;;;;;;;0.70;0.30;;;12.90;99.90;;;;;;5110821;28;20526;-59
2023/04/11 09:51:12;;;;;;;1.38;0.30;;;12.60;99.90;;;;;;5111678;28;20499;-60
2023/04/11 09:53:39;;;;;;;2.00;0.30;;;12.40;99.90;;;;;;5110855;28;20423;-59
2023/04/11 09:56:09;;;;;;;0.80;0.30;;;12.50;99.90;;;;;;5111133;28;20414;-60
2023/04/11 09:58:37;;;;;;;0.52;0.30;;;12.60;99.90;;;;;;5110758;28;20431;-59
2023/04/11 10:01:09;;;;;;;1.50;0.30;;;12.50;99.90;;;;;;5109513;28;20420;-59
2023/04/11 10:03:38;;;;;;;1.00;0.30;;;12.70;99.90;;;;;;5108550;28;20474;-60
2023/04/11 10:06:09;;;;;;;1.00;0.30;;;12.90;99.90;;;;;;5113006;28;20404;-59
2023/04/11 10:08:37;;;;;;;0.68;0.30;;;12.90;99.90;;;;;;5110894;28;20439;-59
2023/04/11 10:11:08;;;;;;;1.88;0.30;;;13.20;99.90;;;;;;5109394;28;20417;-59
2023/04/11 10:13:40;;;;;;;0.90;0.30;;;13.40;99.90;;;;;;5110279;28;20510;-59
2023/04/11 10:16:10;;;;;;;0.70;0.30;;;13.40;99.90;;;;;;5113274;28;20495;-60
2023/04/11 10:18:37;;;;;;;1.40;0.30;;;13.60;99.90;;;;;;5112729;28;20434;-59
2023/04/11 10:21:26;;;;;;;0.95;0.25;;;14.00;99.90;;;;;;5110583;28;20742;-59
2023/04/11 10:24:10;;;;;;;0.85;0.30;;;13.70;99.90;;;;;;5111123;28;20432;-60
2023/04/11 10:26:50;;;;;;;0.90;0.40;;;13.40;99.90;;;;;;5110250;28;20427;-60
2023/04/11 10:29:48;;;;;;;1.30;0.30;;;13.50;99.90;;;;;;5113208;28;20743;-59
2023/04/11 10:32:21;;;;;;;1.20;0.40;;;13.50;99.90;;;;;;5115378;28;20416;-61
2023/04/11 10:35:25;;;;;;;1.70;0.30;;;13.10;99.90;;;;;;5114491;28;20502;-59
2023/04/11 10:37:53;;;;;;;0.88;0.30;;;13.10;99.90;;;;;;5111869;28;20471;-59
2023/04/11 10:40:21;;;;;;;0.80;0.30;;;13.30;99.90;;;;;;5111898;28;20719;-60
2023/04/11 10:42:51;;;;;;;0.98;0.35;;;13.00;99.90;;;;;;5112738;28;20878;-60
2023/04/11 10:45:24;;;;;;;1.20;0.40;;;12.90;99.90;;;;;;5111361;28;20453;-60
2023/04/11 10:48:06;;;;;;;1.52;0.50;;;12.70;99.90;;;;;;5113239;28;20489;-60
2023/04/11 10:50:39;;;;;;;0.90;0.30;;;12.60;99.90;;;;;;5114678;28;20452;-59
2023/04/11 10:53:13;;;;;;;1.48;0.40;;;13.10;99.90;;;;;;5114054;28;20701;-59
2023/04/11 10:55:48;;;;;;;1.10;0.30;;;13.40;99.90;;;;;;5111494;28;20512;-58
2023/04/11 10:58:21;;;;;;;1.30;0.30;;;13.60;99.90;;;;;;5112586;28;20420;-59
2023/04/11 11:01:17;;;;;;;1.95;0.40;;;13.70;99.90;;;;;;5114204;28;20711;-60
2023/04/11 11:03:58;;;;;;;0.73;0.30;;;13.50;99.90;;;;;;5115451;28;20489;-58
2023/04/11 11:06:28;;;;;;;1.30;0.50;;;13.50;99.90;;;;;;5113146;28;20797;-58
2023/04/11 11:08:55;;;;;;;1.10;0.30;;;13.80;99.90;;;;;;5112238;28;20511;-58
2023/04/11 11:11:22;;;;;;;0.70;0.20;;;14.40;99.90;;;;;;5113698;28;20427;-58
2023/04/11 11:13:54;;;;;;;0.80;0.30;;;14.20;99.90;;;;;;5112543;28;20492;-58
2023/04/11 11:16:22;;;;;;;0.85;0.30;;;14.10;99.90;;;;;;5109511;28;21002;-59
2023/04/11 11:18:52;;;;;;;1.10;0.30;;;14.40;99.90;;;;;;5113572;28;20423;-59
2023/04/11 11:21:23;;;;;;;1.08;0.30;;;14.30;99.90;;;;;;5106420;28;20733;-60
2023/04/11 11:23:57;;;;;;;1.38;0.30;;;14.00;99.90;;;;;;5095567;28;21014;-57
2023/04/11 11:26:39;;;;;;;1.20;0.30;;;13.90;99.90;;;;;;5091195;28;20689;-56
2023/04/11 11:29:08;;;;;;;1.08;0.20;;;13.70;99.90;;;;;;5096941;28;20440;-58
2023/04/11 11:31:38;;;;;;;2.20;0.30;;;13.60;99.90;;;;;;5111222;28;20583;-57
2023/04/11 11:34:05;;;;;;;1.00;0.40;;;13.90;99.90;;;;;;5096044;28;20434;-57
2023/04/11 11:36:35;;;;;;;0.90;0.30;;;14.00;99.90;;;;;;5107794;28;20434;-57
2023/04/11 11:39:04;;;;;;;0.90;0.30;;;13.90;99.90;;;;;;5113793;28;20497;-59
2023/04/11 11:41:33;;;;;;;1.27;0.40;;;14.10;99.90;;;;;;5113857;28;20416;-57
2023/04/11 11:44:00;;;;;;;1.00;0.30;;;14.60;99.90;;;;;;5104025;28;20458;-57
2023/04/11 11:46:32;;;;;;;1.20;0.30;;;14.60;99.90;;;;;;5097562;28;20714;-57
2023/04/11 11:49:01;;;;;;;0.60;0.30;;;14.10;99.90;;;;;;5106132;28;21001;-58
2023/04/11 11:51:39;;;;;;;0.70;0.30;;;14.20;99.90;;;;;;5091874;28;20418;-55
2023/04/11 11:54:08;;;;;;;1.00;0.30;;;14.60;99.90;;;;;;5095941;28;20753;-58
2023/04/11 11:56:36;;;;;;;0.80;0.30;;;14.80;99.90;;;;;;5099779;28;20954;-58
2023/04/11 11:59:03;;;;;;;0.52;0.30;;;15.20;99.90;;;;;;5103654;28;20446;-58
2023/04/11 12:01:33;;;;;;;1.10;0.40;;;15.10;99.90;;;;;;5103002;28;20434;-58
2023/04/11 12:04:00;;;;;;;0.90;0.30;;;15.20;99.90;;;;;;5092585;28;20529;-59
2023/04/11 12:06:31;;;;;;;1.10;0.30;;;15.50;99.90;;;;;;5093181;28;20425;-58
2023/04/11 12:09:02;;;;;;;0.80;0.30;;;15.70;99.90;;;;;;5095194;28;20856;-57
2023/04/11 12:11:37;;;;;;;0.50;0.30;;;15.70;99.90;;;;;;5090681;28;20414;-58
2023/04/11 12:14:04;;;;;;;1.00;0.30;;;15.60;99.90;;;;;;5092724;28;20491;-59
2023/04/11 12:16:33;;;;;;;1.60;0.30;;;15.80;99.90;;;;;;5092390;28;20475;-59
2023/04/11 12:19:02;;;;;;;1.08;0.30;;;16.10;99.90;;;;;;5092308;28;20928;-60
2023/04/11 12:21:30;;;;;;;0.60;0.20;;;15.90;98.00;;;;;;5096115;28;20447;-60
2023/04/11 12:23:57;;;;;;;0.50;0.30;;;15.70;97.40;;;;;;5091447;28;20441;-59
2023/04/11 12:26:25;;;;;;;0.50;0.20;;;15.20;97.90;;;;;;5092395;28;20693;-59
2023/04/11 12:28:52;;;;;;;0.70;0.30;;;15.10;97.60;;;;;;5089591;28;20680;-59
2023/04/11 12:31:20;;;;;;;0.50;0.30;;;15.10;98.00;;;;;;5093626;28;20439;-59
2023/04/11 12:33:48;;;;;;;0.70;0.30;;;15.40;97.80;;;;;;5111639;28;20416;-60
2023/04/11 12:36:15;;;;;;;1.50;0.30;;;15.20;97.40;;;;;;5112321;28;20835;-59
2023/04/11 12:38:42;;;;;;;0.90;0.30;;;15.40;98.20;;;;;;5114603;28;20697;-58
2023/04/11 12:41:10;;;;;;;0.68;0.30;;;15.40;97.00;;;;;;5114667;28;20412;-62
2023/04/11 12:43:37;;;;;;;0.70;0.30;;;15.40;96.50;;;;;;5111170;28;20466;-60
2023/04/11 12:46:04;;;;;;;1.20;0.30;;;15.30;94.90;;;;;;5112650;28;20711;-60
2023/04/11 12:48:31;;;;;;;0.70;0.30;;;15.10;96.10;;;;;;5114227;28;20460;-60
2023/04/11 12:51:00;;;;;;;0.70;0.30;;;14.90;96.20;;;;;;5112105;28;20861;-59
2023/04/11 12:53:27;;;;;;;1.50;0.30;;;14.90;97.90;;;;;;5109699;28;20727;-60
2023/04/11 12:55:55;;;;;;;0.80;0.30;;;14.60;97.70;;;;;;5112115;28;20434;-60